Time;durP1;ratioP1;P1;durP2;ratioP2;P2;SDS_P1;SDS_P2;PMS_P1;PMS_P2;Temp;Humidity;BMP_temperature;BMP_pressure;BME280_temperature;BME280_humidity;BME280_pressure;Samples;Min_cycle;Max_cycle;Signal;HPM_P1;HPM_P2
2022/07/26 00:00:19;;;;;;;12.30;9.60;;;;;;;19.57;100.00;95814.72;1026765;28;20390;-69
2022/07/26 00:00:49;;;;;;;12.77;10.73;;;;;;;19.60;100.00;95814.09;1030204;28;20038;-69
2022/07/26 00:01:20;;;;;;;13.75;10.18;;;;;;;19.54;100.00;95806.28;1029642;28;20479;-69
2022/07/26 00:01:50;;;;;;;13.35;10.95;;;;;;;19.62;100.00;95817.25;1026363;28;20045;-69
2022/07/26 00:02:21;;;;;;;17.92;10.02;;;;;;;19.54;100.00;95800.94;1026440;28;20097;-70
2022/07/26 00:02:51;;;;;;;13.85;11.40;;;;;;;19.59;100.00;95818.66;1026211;28;20054;-69
2022/07/26 00:03:22;;;;;;;13.32;10.65;;;;;;;19.50;100.00;95810.69;1026268;28;20554;-69
2022/07/26 00:03:53;;;;;;;16.55;10.95;;;;;;;19.58;100.00;95821.63;1030454;28;20038;-69
2022/07/26 00:04:24;;;;;;;14.30;10.80;;;;;;;19.57;100.00;95817.41;1030156;28;20038;-69
2022/07/26 00:04:54;;;;;;;12.98;10.20;;;;;;;19.54;100.00;95818.81;1030427;28;20406;-70
2022/07/26 00:05:25;;;;;;;13.38;10.52;;;;;;;19.54;100.00;95816.16;1030323;28;20038;-70
2022/07/26 00:05:55;;;;;;;11.70;9.80;;;;;;;19.55;100.00;95820.38;1034318;28;20610;-69
2022/07/26 00:06:26;;;;;;;12.20;10.90;;;;;;;19.49;100.00;95803.81;1034377;28;20063;-69
2022/07/26 00:06:56;;;;;;;12.35;10.07;;;;;;;19.58;100.00;95821.63;1034477;28;20026;-70
2022/07/26 00:07:27;;;;;;;12.45;10.80;;;;;;;19.60;100.00;95819.44;1034206;28;20048;-70
2022/07/26 00:08:09;;;;;;;13.02;10.32;;;;;;;19.60;100.00;95819.44;1034247;28;20025;-70
2022/07/26 00:08:39;;;;;;;13.10;9.80;;;;;;;19.60;100.00;95816.75;1034474;28;20030;-69
2022/07/26 00:09:10;;;;;;;11.32;9.43;;;;;;;19.51;100.00;95812.22;1026393;28;20034;-69
2022/07/26 00:09:40;;;;;;;12.60;9.77;;;;;;;19.52;100.00;95816.47;1026110;28;20062;-69
2022/07/26 00:10:11;;;;;;;12.95;10.93;;;;;;;19.53;100.00;95822.56;1026409;28;20042;-69
2022/07/26 00:10:47;;;;;;;15.07;10.73;;;;;;;19.36;100.00;95794.13;1026411;28;20118;-69
2022/07/26 00:11:18;;;;;;;12.13;10.35;;;;;;;19.54;100.00;95811.59;1029474;28;20038;-70
2022/07/26 00:11:48;;;;;;;13.32;10.05;;;;;;;19.52;100.00;95816.47;1026226;28;20537;-68
2022/07/26 00:12:19;;;;;;;11.32;9.88;;;;;;;19.55;100.00;95817.72;1026367;28;20134;-68
2022/07/26 00:12:49;;;;;;;13.20;11.02;;;;;;;19.55;100.00;95818.50;1026290;28;20035;-70
2022/07/26 00:13:20;;;;;;;12.75;10.45;;;;;;;19.54;100.00;95811.59;1026491;28;20023;-70
2022/07/26 00:13:50;;;;;;;12.93;9.73;;;;;;;19.58;100.00;95813.63;1022222;28;20830;-70
2022/07/26 00:14:21;;;;;;;13.70;9.30;;;;;;;19.59;100.00;95818.66;1022363;29;20039;-69
2022/07/26 00:14:52;;;;;;;13.43;10.07;;;;;;;19.60;100.00;95816.75;1022270;29;20031;-70
2022/07/26 00:15:22;;;;;;;13.68;9.98;;;;;;;19.55;100.00;95813.19;1018892;28;20071;-70
2022/07/26 00:15:53;;;;;;;11.40;9.38;;;;;;;19.57;100.00;95814.72;1030304;28;20706;-68
2022/07/26 00:16:23;;;;;;;12.43;9.32;;;;;;;19.54;100.00;95808.94;1026178;28;20219;-69
2022/07/26 00:16:53;;;;;;;12.95;10.38;;;;;;;19.54;100.00;95818.81;1026471;28;20031;-70
2022/07/26 00:17:24;;;;;;;14.00;9.88;;;;;;;19.49;100.00;95806.47;1030240;28;20105;-69
2022/07/26 00:17:54;;;;;;;11.07;9.73;;;;;;;19.57;100.00;95817.41;1030213;28;20101;-69
2022/07/26 00:18:25;;;;;;;12.13;9.65;;;;;;;19.53;100.00;95803.94;1029361;28;20042;-69
2022/07/26 00:18:55;;;;;;;11.80;10.43;;;;;;;19.58;100.00;95810.97;1026426;28;20030;-70
2022/07/26 00:19:26;;;;;;;11.13;9.77;;;;;;;19.58;100.00;95806.41;1026398;28;20473;-69
2022/07/26 00:19:56;;;;;;;15.05;10.15;;;;;;;19.58;100.00;95810.97;1026313;28;20034;-70
2022/07/26 00:20:27;;;;;;;11.95;9.68;;;;;;;19.52;100.00;95808.50;1030246;28;20030;-69
2022/07/26 00:20:57;;;;;;;14.35;9.73;;;;;;;19.53;100.00;95811.94;1034523;28;20029;-69
2022/07/26 00:21:29;;;;;;;13.98;10.00;;;;;;;19.55;100.00;95815.84;1029587;28;20100;-69
2022/07/26 00:22:48;;;;;;;11.02;9.43;;;;;;;19.54;100.00;95808.94;1030409;28;20409;-70
2022/07/26 00:23:19;;;;;;;13.32;10.70;;;;;;;19.52;100.00;95808.50;1031412;28;20123;-70
2022/07/26 00:23:49;;;;;;;14.30;9.57;;;;;;;19.52;100.00;95807.72;1034099;28;20519;-68
2022/07/26 00:24:23;;;;;;;12.20;9.75;;;;;;;19.50;100.00;95805.34;1032591;28;20053;-69
2022/07/26 00:24:53;;;;;;;11.20;9.65;;;;;;;19.51;100.00;95812.22;1034504;28;20058;-69
2022/07/26 00:25:24;;;;;;;14.15;10.30;;;;;;;19.51;100.00;95806.91;1034359;28;20038;-69
2022/07/26 00:25:54;;;;;;;13.60;10.07;;;;;;;19.49;100.00;95801.13;1030275;28;20531;-69
2022/07/26 00:26:24;;;;;;;13.68;9.48;;;;;;;19.50;100.00;95805.34;1026313;28;20122;-69
2022/07/26 00:26:55;;;;;;;13.40;10.13;;;;;;;19.49;100.00;95803.81;1026172;28;20026;-67
2022/07/26 00:27:25;;;;;;;12.15;10.23;;;;;;;19.50;100.00;95802.69;1022368;28;20114;-69
2022/07/26 00:27:56;;;;;;;21.10;10.07;;;;;;;19.52;100.00;95807.72;1022325;28;20061;-71
2022/07/26 00:28:26;;;;;;;12.13;9.40;;;;;;;19.51;100.00;95801.59;1022266;29;20039;-69
2022/07/26 00:28:57;;;;;;;11.40;9.52;;;;;;;19.50;100.00;95809.91;1022221;28;20027;-67
2022/07/26 00:29:27;;;;;;;11.93;9.98;;;;;;;19.50;100.00;95805.34;1022469;28;20066;-69
2022/07/26 00:29:58;;;;;;;12.98;9.90;;;;;;;19.50;100.00;95805.34;1026501;28;20039;-70
2022/07/26 00:30:28;;;;;;;16.73;10.18;;;;;;;19.50;100.00;95810.69;1030004;28;20042;-71
2022/07/26 00:30:59;;;;;;;12.05;9.73;;;;;;;19.45;100.00;95800.22;1034310;28;20036;-70
2022/07/26 00:31:30;;;;;;;12.55;9.50;;;;;;;19.51;100.00;95808.78;1029553;28;20019;-69
2022/07/26 00:32:00;;;;;;;17.20;10.80;;;;;;;19.53;100.00;95803.94;1025423;28;20031;-70
2022/07/26 00:32:31;;;;;;;13.02;10.05;;;;;;;19.51;100.00;95812.22;1029355;28;20071;-69
2022/07/26 00:33:01;;;;;;;13.23;10.73;;;;;;;19.53;100.00;95804.72;1030452;28;20026;-68
2022/07/26 00:33:32;;;;;;;12.13;9.27;;;;;;;19.52;100.00;95813.81;1034193;28;20053;-71
2022/07/26 00:34:02;;;;;;;15.40;9.95;;;;;;;19.50;100.00;95816.00;1032875;28;20165;-69
2022/07/26 00:34:33;;;;;;;13.73;10.63;;;;;;;19.49;100.00;95809.13;1034000;28;20026;-69
2022/07/26 00:35:04;;;;;;;12.00;10.73;;;;;;;19.46;100.00;95801.78;1038329;28;20131;-68
2022/07/26 00:35:34;;;;;;;14.48;10.85;;;;;;;19.48;100.00;95802.25;1025037;28;20034;-70
2022/07/26 00:36:05;;;;;;;12.35;9.77;;;;;;;19.48;100.00;95812.09;1026288;28;20114;-70
2022/07/26 00:36:35;;;;;;;14.27;8.98;;;;;;;19.48;100.00;95809.44;1026157;28;20034;-69
2022/07/26 00:37:06;;;;;;;11.07;9.10;;;;;;;19.48;100.00;95806.75;1025793;28;20082;-71
2022/07/26 00:37:37;;;;;;;9.80;8.80;;;;;;;19.47;100.00;95805.97;1035495;28;20108;-68
2022/07/26 00:38:07;;;;;;;12.13;9.20;;;;;;;19.48;100.00;95807.56;1035182;28;20026;-69
2022/07/26 00:38:38;;;;;;;11.73;9.60;;;;;;;19.47;100.00;95805.97;1030830;28;20041;-69
2022/07/26 00:39:08;;;;;;;10.75;9.55;;;;;;;19.48;100.00;95809.44;1026472;28;20070;-70
2022/07/26 00:39:38;;;;;;;12.23;9.70;;;;;;;19.49;100.00;95805.69;1027078;28;20066;-69
2022/07/26 00:40:09;;;;;;;10.88;9.43;;;;;;;19.49;100.00;95806.47;1031086;28;20050;-69
2022/07/26 00:40:40;;;;;;;12.43;9.60;;;;;;;19.49;100.00;95808.34;1030646;28;20026;-69
2022/07/26 00:41:10;;;;;;;11.80;9.63;;;;;;;19.52;100.00;95807.72;1030368;28;20017;-69
2022/07/26 00:41:41;;;;;;;14.65;9.73;;;;;;;19.52;100.00;95803.16;1030920;28;20034;-69
2022/07/26 00:42:12;;;;;;;11.30;9.27;;;;;;;19.54;100.00;95808.94;1031031;28;20248;-68
2022/07/26 00:42:43;;;;;;;14.43;10.00;;;;;;;19.52;100.00;95802.38;1034667;28;20038;-69
2022/07/26 00:43:14;;;;;;;11.50;9.52;;;;;;;19.50;100.00;95800.03;1027296;28;20023;-68
2022/07/26 00:43:56;;;;;;;11.75;9.38;;;;;;;19.46;100.00;95793.78;1027287;28;20101;-69
2022/07/26 00:44:39;;;;;;;13.32;9.18;;;;;;;19.52;100.00;95789.84;1025586;28;20046;-71
2022/07/26 00:45:10;;;;;;;12.23;9.20;;;;;;;19.55;100.00;95793.78;1026228;28;20545;-69
2022/07/26 00:45:40;;;;;;;12.60;9.75;;;;;;;19.54;100.00;95789.53;1024901;28;20097;-70
2022/07/26 00:46:11;;;;;;;11.07;9.73;;;;;;;19.55;100.00;95788.44;1017906;29;20531;-69
2022/07/26 00:46:42;;;;;;;10.73;9.52;;;;;;;19.52;100.00;95781.88;1019435;28;20500;-69
2022/07/26 00:47:12;;;;;;;11.93;9.65;;;;;;;19.55;100.00;95781.25;1026844;28;20035;-70
2022/07/26 00:47:43;;;;;;;11.43;9.02;;;;;;;19.57;100.00;95785.47;1023143;28;20062;-69
2022/07/26 00:48:14;;;;;;;15.52;9.57;;;;;;;19.57;100.00;95788.91;1027022;28;20114;-67
2022/07/26 00:48:44;;;;;;;10.95;9.45;;;;;;;19.55;100.00;95777.81;1027087;28;20429;-70
2022/07/26 00:49:17;;;;;;;11.63;9.38;;;;;;;19.55;100.00;95775.91;1026919;28;20586;-70
2022/07/26 00:49:48;;;;;;;10.70;9.60;;;;;;;19.57;100.00;95777.47;1033927;28;20026;-69
2022/07/26 00:50:18;;;;;;;12.30;9.98;;;;;;;19.48;100.00;95772.97;1031028;28;20039;-69
2022/07/26 00:50:51;;;;;;;11.43;10.13;;;;;;;19.52;100.00;95781.88;1029614;28;20479;-69
2022/07/26 00:51:21;;;;;;;11.40;9.10;;;;;;;19.54;100.00;95779.66;1030169;28;20030;-67
2022/07/26 00:51:51;;;;;;;13.13;9.43;;;;;;;19.53;100.00;95782.66;1034306;28;20042;-68
2022/07/26 00:52:22;;;;;;;12.23;10.20;;;;;;;19.52;100.00;95781.09;1026745;28;20155;-69
2022/07/26 00:52:53;;;;;;;13.57;10.38;;;;;;;19.51;100.00;95780.28;1022863;29;20496;-70
2022/07/26 00:53:23;;;;;;;10.90;9.60;;;;;;;19.52;100.00;95781.88;1022782;29;20031;-70
2022/07/26 00:53:54;;;;;;;10.93;9.63;;;;;;;19.48;100.00;95774.81;1026877;28;20058;-69
2022/07/26 00:54:24;;;;;;;13.90;10.50;;;;;;;19.52;100.00;95781.88;1027655;28;20455;-69
2022/07/26 00:54:55;;;;;;;14.35;9.82;;;;;;;19.50;100.00;95786.72;1026760;28;20030;-70
2022/07/26 00:55:25;;;;;;;13.90;10.35;;;;;;;19.46;100.00;95783.13;1022827;29;20094;-69
2022/07/26 00:55:56;;;;;;;13.00;9.80;;;;;;;19.47;100.00;95783.91;1021164;29;20023;-70
2022/07/26 00:56:26;;;;;;;11.40;9.85;;;;;;;19.47;100.00;95786.59;1021715;28;20552;-69
2022/07/26 00:56:57;;;;;;;13.15;9.77;;;;;;;19.46;100.00;95788.47;1027101;28;20065;-70
2022/07/26 00:57:27;;;;;;;12.80;9.88;;;;;;;19.44;100.00;95785.31;1026369;28;20105;-67
2022/07/26 00:58:00;;;;;;;11.00;9.82;;;;;;;19.45;100.00;95792.22;1020416;29;20063;-70
2022/07/26 00:58:30;;;;;;;11.88;9.52;;;;;;;19.44;100.00;95789.88;1026892;28;20065;-70
2022/07/26 00:59:01;;;;;;;13.95;10.32;;;;;;;19.44;100.00;95787.22;1027369;28;20089;-69
2022/07/26 00:59:31;;;;;;;12.77;9.98;;;;;;;19.45;100.00;95786.91;1028743;28;20125;-69
2022/07/26 01:00:06;;;;;;;14.18;9.27;;;;;;;19.42;100.00;95784.09;1035051;28;20049;-69
2022/07/26 01:00:37;;;;;;;13.80;9.70;;;;;;;19.45;100.00;95780.78;1031063;28;20026;-70
2022/07/26 01:01:07;;;;;;;11.82;9.52;;;;;;;19.45;100.00;95786.91;1027789;28;20591;-70
2022/07/26 01:01:38;;;;;;;12.35;9.15;;;;;;;19.46;100.00;95791.13;1023281;28;20090;-69
2022/07/26 01:02:09;;;;;;;12.82;9.93;;;;;;;19.41;100.00;95785.19;1027052;28;20023;-69
2022/07/26 01:02:39;;;;;;;12.35;9.45;;;;;;;19.38;100.00;95777.84;1029700;28;20065;-70
2022/07/26 01:03:10;;;;;;;15.07;10.05;;;;;;;19.42;100.00;95792.88;1029840;28;20617;-70
2022/07/26 01:03:40;;;;;;;13.07;10.27;;;;;;;19.39;100.00;95785.50;1030645;28;20165;-69
2022/07/26 01:04:13;;;;;;;16.30;9.38;;;;;;;19.46;100.00;95793.78;1022819;29;20143;-72
2022/07/26 01:04:44;;;;;;;12.35;9.05;;;;;;;19.45;100.00;95796.75;1019366;29;20039;-70
2022/07/26 01:05:18;;;;;;;11.10;9.27;;;;;;;19.45;100.00;95797.56;1023113;28;20023;-69
2022/07/26 01:05:49;;;;;;;12.55;9.40;;;;;;;19.40;100.00;95786.28;1024395;28;20723;-69
2022/07/26 01:06:20;;;;;;;11.85;9.43;;;;;;;19.39;100.00;95788.19;1018846;28;20055;-70
2022/07/26 01:06:50;;;;;;;15.05;9.35;;;;;;;19.45;100.00;95792.22;1018844;29;20024;-69
2022/07/26 01:07:21;;;;;;;12.93;8.80;;;;;;;19.46;100.00;95803.66;1022890;29;20035;-68
2022/07/26 01:07:52;;;;;;;11.68;9.27;;;;;;;19.45;100.00;95786.91;1026594;28;20026;-70
2022/07/26 01:08:22;;;;;;;13.38;9.60;;;;;;;19.48;100.00;95790.78;1022883;29;20031;-69
2022/07/26 01:08:53;;;;;;;11.15;8.77;;;;;;;19.48;100.00;95791.59;1022848;29;20106;-70
2022/07/26 01:09:23;;;;;;;9.65;8.65;;;;;;;19.48;100.00;95790.78;1022730;29;20051;-70
2022/07/26 01:09:54;;;;;;;14.07;9.00;;;;;;;19.44;100.00;95787.22;1030359;28;20026;-68
2022/07/26 01:10:24;;;;;;;10.65;8.23;;;;;;;19.49;100.00;95789.72;1026990;28;20136;-69
2022/07/26 01:10:55;;;;;;;11.55;8.55;;;;;;;19.42;100.00;95784.88;1026910;28;20018;-69
2022/07/26 01:11:25;;;;;;;10.25;8.85;;;;;;;19.45;100.00;95783.44;1022679;28;20027;-70
2022/07/26 01:11:56;;;;;;;14.93;8.48;;;;;;;19.43;100.00;95786.44;1026661;28;20057;-70
2022/07/26 01:12:26;;;;;;;8.73;7.45;;;;;;;19.33;100.00;95765.50;1025523;28;20038;-69
2022/07/26 01:12:57;;;;;;;10.82;7.85;;;;;;;19.49;100.00;95793.16;1028900;28;20022;-70
2022/07/26 01:13:28;;;;;;;11.07;8.00;;;;;;;19.46;100.00;95791.13;1029600;28;20018;-70
2022/07/26 01:13:58;;;;;;;9.23;7.97;;;;;;;19.46;100.00;95793.00;1022536;28;20126;-69
2022/07/26 01:14:29;;;;;;;9.65;7.97;;;;;;;19.46;100.00;95790.34;1022153;29;20101;-69
2022/07/26 01:14:59;;;;;;;8.07;7.25;;;;;;;19.46;100.00;95793.00;1020548;29;20577;-69
2022/07/26 01:15:29;;;;;;;9.38;7.90;;;;;;;19.46;100.00;95791.13;1026821;28;20046;-70
2022/07/26 01:16:00;;;;;;;12.05;7.82;;;;;;;19.45;100.00;95791.44;1026634;28;20460;-69
2022/07/26 01:16:30;;;;;;;9.57;7.32;;;;;;;19.46;100.00;95782.38;1026795;28;20035;-68
2022/07/26 01:17:01;;;;;;;12.38;8.57;;;;;;;19.46;100.00;95787.69;1026901;28;20026;-69
2022/07/26 01:17:31;;;;;;;8.88;7.97;;;;;;;19.47;100.00;95790.00;1022715;28;20015;-70
2022/07/26 01:18:02;;;;;;;8.60;7.57;;;;;;;19.42;100.00;95779.56;1024878;28;20109;-70
2022/07/26 01:18:32;;;;;;;11.48;7.35;;;;;;;19.46;100.00;95777.81;1022745;28;20027;-69
2022/07/26 01:19:03;;;;;;;10.90;7.72;;;;;;;19.42;100.00;95773.47;1026922;28;20090;-69
2022/07/26 01:19:33;;;;;;;11.82;7.70;;;;;;;19.43;100.00;95773.13;1030712;28;20504;-71
2022/07/26 01:20:05;;;;;;;8.10;7.00;;;;;;;19.43;100.00;95783.78;1026688;28;20038;-68
2022/07/26 01:20:35;;;;;;;10.77;7.97;;;;;;;19.40;100.00;95775.66;1026806;28;20484;-69
2022/07/26 01:21:06;;;;;;;11.65;7.72;;;;;;;19.42;100.00;95786.75;1020846;29;20056;-69
2022/07/26 01:21:36;;;;;;;9.15;7.68;;;;;;;19.44;100.00;95780.00;1022492;29;20038;-70
2022/07/26 01:22:07;;;;;;;12.32;7.05;;;;;;;19.40;100.00;95784.41;1018864;29;20095;-68
2022/07/26 01:22:37;;;;;;;8.98;7.30;;;;;;;19.33;100.00;95773.47;1026181;28;20057;-69
2022/07/26 01:23:08;;;;;;;9.05;7.10;;;;;;;19.39;100.00;95785.50;1031399;28;20392;-69
2022/07/26 01:23:38;;;;;;;8.98;7.65;;;;;;;19.39;100.00;95782.06;1030794;28;20030;-70
2022/07/26 01:24:09;;;;;;;7.65;6.80;;;;;;;19.40;100.00;95773.00;1024712;28;20026;-70
2022/07/26 01:24:39;;;;;;;10.43;7.22;;;;;;;19.37;100.00;95778.94;1022400;29;20031;-69
2022/07/26 01:25:12;;;;;;;8.52;7.63;;;;;;;19.30;100.00;95774.09;1022819;28;20586;-70
2022/07/26 01:25:43;;;;;;;9.38;7.57;;;;;;;19.38;100.00;95775.16;1023295;28;20130;-69
2022/07/26 01:26:13;;;;;;;9.20;7.20;;;;;;;19.37;100.00;95777.06;1022550;29;20035;-69
2022/07/26 01:26:44;;;;;;;8.75;6.70;;;;;;;19.37;100.00;95779.72;1018759;29;20023;-70
2022/07/26 01:27:14;;;;;;;7.63;6.78;;;;;;;19.30;100.00;95780.19;1022972;28;20079;-70
2022/07/26 01:27:45;;;;;;;9.65;7.10;;;;;;;19.35;100.00;95781.13;1026934;28;20556;-69
2022/07/26 01:28:15;;;;;;;12.50;7.85;;;;;;;19.33;100.00;95778.03;1034618;28;20033;-69
2022/07/26 01:28:48;;;;;;;10.68;7.20;;;;;;;19.36;100.00;95780.81;1028453;28;20026;-69
2022/07/26 01:29:18;;;;;;;7.95;7.15;;;;;;;19.36;100.00;95783.47;1026330;28;20669;-70
2022/07/26 01:29:50;;;;;;;11.10;7.20;;;;;;;19.36;100.00;95780.81;1034851;28;20100;-70
2022/07/26 01:30:21;;;;;;;12.15;7.13;;;;;;;19.35;100.00;95783.78;1030159;28;20030;-70
2022/07/26 01:30:51;;;;;;;11.65;6.90;;;;;;;19.31;100.00;95783.63;1033966;28;20030;-69
2022/07/26 01:31:24;;;;;;;11.88;7.32;;;;;;;19.26;100.00;95767.88;1034218;28;20045;-70
2022/07/26 01:31:55;;;;;;;10.00;7.38;;;;;;;19.33;100.00;95784.13;1031269;28;20400;-69
2022/07/26 01:32:26;;;;;;;10.60;7.15;;;;;;;19.30;100.00;95779.44;1029184;28;20034;-69
2022/07/26 01:32:56;;;;;;;8.85;6.32;;;;;;;19.27;100.00;95770.19;1026676;28;20077;-70
2022/07/26 01:33:27;;;;;;;9.20;6.38;;;;;;;19.30;100.00;95782.88;1026948;28;20041;-70
2022/07/26 01:33:57;;;;;;;7.40;6.65;;;;;;;19.31;100.00;95779.13;1021243;28;20031;-70
2022/07/26 01:34:27;;;;;;;10.85;7.18;;;;;;;19.30;100.00;95782.88;1022601;28;20027;-68
2022/07/26 01:34:58;;;;;;;8.43;6.60;;;;;;;19.30;100.00;95784.75;1026653;28;20605;-70
2022/07/26 01:35:29;;;;;;;10.52;6.80;;;;;;;19.31;100.00;95783.63;1025542;28;20054;-71
2022/07/26 01:36:00;;;;;;;8.90;6.78;;;;;;;19.33;100.00;95786.00;1031166;28;20034;-68
2022/07/26 01:36:30;;;;;;;12.00;6.28;;;;;;;19.29;100.00;95780.53;1034796;28;20630;-70
2022/07/26 01:37:01;;;;;;;8.50;6.40;;;;;;;19.30;100.00;95779.44;1026582;28;20085;-70
2022/07/26 01:37:31;;;;;;;7.15;5.78;;;;;;;19.27;100.00;95780.84;1029967;28;20018;-69
2022/07/26 01:38:02;;;;;;;8.05;6.72;;;;;;;19.27;100.00;95778.16;1030665;28;20539;-69
2022/07/26 01:38:32;;;;;;;10.13;7.00;;;;;;;19.23;100.00;95768.50;1026854;28;20023;-70
2022/07/26 01:39:03;;;;;;;8.68;6.60;;;;;;;19.22;100.00;95773.03;1025897;28;20110;-70
2022/07/26 01:39:33;;;;;;;8.82;6.63;;;;;;;19.25;100.00;95774.28;1022683;29;20031;-70
2022/07/26 01:40:04;;;;;;;9.75;6.65;;;;;;;19.28;100.00;95778.94;1022913;29;20066;-69
2022/07/26 01:40:38;;;;;;;8.38;5.88;;;;;;;19.23;100.00;95776.47;1022511;28;20023;-69
2022/07/26 01:41:08;;;;;;;6.40;5.78;;;;;;;19.23;100.00;95776.47;1030506;28;20121;-70
2022/07/26 01:41:39;;;;;;;9.18;6.53;;;;;;;19.22;100.00;95777.56;1030699;28;20161;-71
2022/07/26 01:42:09;;;;;;;8.65;6.63;;;;;;;19.23;100.00;95779.13;1030940;28;20042;-69
2022/07/26 01:42:40;;;;;;;7.28;5.82;;;;;;;19.24;100.00;95778.03;1030706;28;20309;-71
2022/07/26 01:43:10;;;;;;;7.95;6.15;;;;;;;19.25;100.00;95775.06;1030622;28;20030;-71
2022/07/26 01:43:41;;;;;;;8.32;6.03;;;;;;;19.22;100.00;95772.25;1034883;28;20412;-71
2022/07/26 01:44:11;;;;;;;7.32;6.10;;;;;;;19.26;100.00;95781.16;1024044;28;20628;-70
2022/07/26 01:44:42;;;;;;;7.00;5.45;;;;;;;19.25;100.00;95782.28;1030652;28;20089;-70
2022/07/26 01:45:12;;;;;;;8.80;6.40;;;;;;;19.23;100.00;95773.81;1030540;28;20766;-72
2022/07/26 01:45:43;;;;;;;11.48;6.03;;;;;;;19.26;100.00;95779.28;1025212;28;20049;-70
2022/07/26 01:46:13;;;;;;;7.47;6.47;;;;;;;19.26;100.00;95779.28;1034269;28;20034;-70
2022/07/26 01:46:44;;;;;;;9.55;6.25;;;;;;;19.28;100.00;95781.59;1025936;28;20034;-70
2022/07/26 01:47:14;;;;;;;11.60;6.65;;;;;;;19.27;100.00;95786.16;1025295;28;20697;-68
2022/07/26 01:47:48;;;;;;;9.93;6.22;;;;;;;19.27;100.00;95785.38;1028900;28;20019;-71
2022/07/26 01:48:19;;;;;;;8.57;5.82;;;;;;;19.22;100.00;95775.69;1027878;28;20117;-71
2022/07/26 01:48:50;;;;;;;9.43;6.22;;;;;;;19.21;100.00;95776.00;1022344;28;20078;-71
2022/07/26 01:49:20;;;;;;;9.63;5.90;;;;;;;19.29;100.00;95785.84;1020547;29;20115;-71
2022/07/26 01:49:51;;;;;;;9.90;6.40;;;;;;;19.20;100.00;95769.13;1022664;29;20031;-71
2022/07/26 01:50:21;;;;;;;7.65;5.93;;;;;;;19.25;100.00;95783.06;1022921;28;20054;-70
2022/07/26 01:50:52;;;;;;;8.13;5.88;;;;;;;19.27;100.00;95782.72;1028526;28;20696;-70
2022/07/26 01:51:22;;;;;;;7.32;5.80;;;;;;;19.25;100.00;95776.94;1028026;28;20802;-68
2022/07/26 01:51:53;;;;;;;8.00;5.80;;;;;;;19.27;100.00;95785.38;1034792;28;20216;-71
2022/07/26 01:52:23;;;;;;;7.80;5.78;;;;;;;19.26;100.00;95783.81;1030060;28;20026;-71
2022/07/26 01:52:54;;;;;;;7.20;6.05;;;;;;;19.26;100.00;95784.59;1026065;28;20022;-71
2022/07/26 01:53:24;;;;;;;10.25;6.47;;;;;;;19.23;100.00;95779.91;1022633;29;20034;-70
2022/07/26 01:53:55;;;;;;;9.40;5.75;;;;;;;19.30;100.00;95784.75;1022572;29;20658;-69
2022/07/26 01:54:25;;;;;;;7.15;6.25;;;;;;;19.29;100.00;95783.19;1019302;29;20115;-70
2022/07/26 01:54:56;;;;;;;7.95;6.65;;;;;;;19.29;100.00;95777.88;1018850;29;20027;-70
2022/07/26 01:55:26;;;;;;;11.18;6.43;;;;;;;19.28;100.00;95777.09;1021477;28;20100;-70
2022/07/26 01:55:57;;;;;;;8.35;6.32;;;;;;;19.23;100.00;95779.13;1028512;28;20015;-69
2022/07/26 01:56:27;;;;;;;10.07;6.82;;;;;;;19.28;100.00;95787.75;1029456;28;20031;-70
2022/07/26 01:56:58;;;;;;;7.55;6.40;;;;;;;19.24;100.00;95778.81;1030689;28;20022;-70
2022/07/26 01:57:28;;;;;;;9.77;7.35;;;;;;;19.25;100.00;95782.28;1030100;28;20085;-71
2022/07/26 01:57:59;;;;;;;9.27;7.05;;;;;;;19.25;100.00;95775.06;1026596;28;20069;-71
2022/07/26 01:58:29;;;;;;;9.05;6.95;;;;;;;19.26;100.00;95781.94;1030672;28;20015;-70
2022/07/26 01:59:00;;;;;;;10.70;7.68;;;;;;;19.23;100.00;95779.91;1022667;29;20560;-68
2022/07/26 01:59:31;;;;;;;9.13;6.57;;;;;;;19.24;100.00;95778.03;1016028;28;20020;-71
2022/07/26 02:00:03;;;;;;;10.68;7.10;;;;;;;19.24;100.00;95780.69;1026570;28;20027;-71
2022/07/26 02:00:34;;;;;;;9.68;7.35;;;;;;;19.24;100.00;95781.47;1029912;28;20110;-71
2022/07/26 02:01:04;;;;;;;10.65;7.47;;;;;;;19.23;100.00;95773.81;1029699;28;20520;-70
2022/07/26 02:01:35;;;;;;;12.05;7.45;;;;;;;19.22;100.00;95777.56;1030169;28;20026;-68
2022/07/26 02:02:05;;;;;;;11.75;7.20;;;;;;;19.22;100.00;95777.56;1030291;28;20019;-70
2022/07/26 02:02:36;;;;;;;9.52;7.43;;;;;;;19.22;100.00;95778.34;1022440;28;20393;-71
2022/07/26 02:03:06;;;;;;;10.57;7.40;;;;;;;19.23;100.00;95779.13;1023257;28;20150;-69
2022/07/26 02:03:36;;;;;;;10.93;7.88;;;;;;;19.23;100.00;95782.56;1030591;28;20018;-69
2022/07/26 02:04:07;;;;;;;11.43;7.60;;;;;;;19.24;100.00;95781.47;1028335;28;20519;-71
2022/07/26 02:05:26;;;;;;;12.93;7.45;;;;;;;19.25;100.00;95776.94;1031263;28;20174;-70
2022/07/26 02:05:57;;;;;;;9.23;8.02;;;;;;;19.21;100.00;95783.97;1035781;28;20518;-70
2022/07/26 02:06:27;;;;;;;10.32;7.22;;;;;;;19.17;100.00;95775.06;1037417;28;20061;-70
2022/07/26 02:06:58;;;;;;;10.90;7.47;;;;;;;19.16;100.00;95784.16;1033564;28;20569;-69
2022/07/26 02:07:30;;;;;;;12.32;7.20;;;;;;;19.17;100.00;95786.50;1033385;28;20026;-69
2022/07/26 02:08:00;;;;;;;8.65;7.10;;;;;;;19.15;100.00;95783.38;1023726;28;20576;-69
2022/07/26 02:08:31;;;;;;;12.40;8.15;;;;;;;19.12;100.00;95784.00;1025904;28;20031;-69
2022/07/26 02:09:01;;;;;;;12.55;7.85;;;;;;;19.16;100.00;95784.16;1025283;28;20033;-69
2022/07/26 02:09:32;;;;;;;12.15;8.23;;;;;;;19.10;100.00;95780.88;1024027;28;20019;-70
2022/07/26 02:10:02;;;;;;;11.30;7.93;;;;;;;19.18;100.00;95789.94;1026604;28;20062;-71
2022/07/26 02:11:22;;;;;;;12.88;8.85;;;;;;;19.15;100.00;95788.69;1034958;28;20032;-70
2022/07/26 02:11:52;;;;;;;12.15;7.60;;;;;;;19.14;100.00;95786.34;1028669;28;20066;-68
2022/07/26 02:12:23;;;;;;;10.52;7.47;;;;;;;19.14;100.00;95791.66;1030491;28;20030;-69
2022/07/26 02:12:54;;;;;;;14.25;7.47;;;;;;;19.13;100.00;95785.56;1032320;28;20030;-70
2022/07/26 02:13:25;;;;;;;10.68;7.43;;;;;;;19.12;100.00;95783.22;1034755;28;20619;-69
2022/07/26 02:13:55;;;;;;;9.88;7.57;;;;;;;19.08;100.00;95783.88;1034543;28;20029;-70
2022/07/26 02:14:25;;;;;;;10.93;7.22;;;;;;;19.08;100.00;95783.88;1034040;28;20029;-69
2022/07/26 02:14:59;;;;;;;10.00;7.15;;;;;;;19.06;100.00;95786.03;1029651;28;20031;-69
2022/07/26 02:15:29;;;;;;;14.93;7.85;;;;;;;19.07;100.00;95776.97;1030445;28;20114;-70
2022/07/26 02:16:01;;;;;;;11.32;7.10;;;;;;;19.11;100.00;95790.41;1030655;28;20820;-69
2022/07/26 02:16:31;;;;;;;9.98;6.80;;;;;;;19.10;100.00;95786.19;1030558;28;20029;-70
2022/07/26 02:17:02;;;;;;;11.60;6.95;;;;;;;19.06;100.00;95780.72;1034597;28;20393;-71
2022/07/26 02:17:32;;;;;;;15.50;7.10;;;;;;;19.03;100.00;95770.72;1030543;28;20069;-69
2022/07/26 02:18:03;;;;;;;13.50;7.38;;;;;;;19.05;100.00;95781.06;1022024;28;20460;-69
2022/07/26 02:18:33;;;;;;;9.45;6.88;;;;;;;19.04;100.00;95774.94;1026037;28;20031;-69
2022/07/26 02:19:04;;;;;;;12.35;6.93;;;;;;;19.06;100.00;95774.63;1012998;29;20024;-69
2022/07/26 02:19:34;;;;;;;9.43;6.90;;;;;;;19.07;100.00;95776.97;1015163;29;20405;-70
2022/07/26 02:20:06;;;;;;;10.48;7.00;;;;;;;19.06;100.00;95777.28;1020650;29;20034;-70
2022/07/26 02:20:36;;;;;;;10.25;6.70;;;;;;;19.01;100.00;95775.59;1022608;28;20031;-70
2022/07/26 02:21:06;;;;;;;13.30;7.47;;;;;;;19.00;100.00;95770.56;1032608;28;20064;-70
2022/07/26 02:21:37;;;;;;;10.43;6.45;;;;;;;18.97;100.00;95771.19;1038737;28;20124;-70
2022/07/26 02:22:07;;;;;;;9.68;7.32;;;;;;;18.96;100.00;95770.41;1031212;28;20033;-70
2022/07/26 02:22:38;;;;;;;8.73;6.03;;;;;;;18.98;100.00;95772.75;1032046;28;20030;-70
2022/07/26 02:23:08;;;;;;;9.65;6.10;;;;;;;19.02;100.00;95777.13;1028374;28;20351;-71
2022/07/26 02:23:39;;;;;;;11.75;6.60;;;;;;;19.01;100.00;95775.59;1016705;29;20027;-69
2022/07/26 02:24:09;;;;;;;8.15;6.30;;;;;;;19.01;100.00;95777.44;1025312;28;20467;-71